2016 Cux-Wetter.de -Die Nutzung der Wetterdaten nur mit ausdrcklicher Genehmigung
Wetterdaten: Woche 18.07.16 - 24.07.16 (KW29)
Datum Zeit Temp. A. Feuchte A. Luftdruck Regen Wind Richtung Sonnenschein Solar Taupunkt Windchill Windben
18.07.2016 00:00 16,6 C 83 % 1018,1 hPa 0,0 l/m 9,1 km/h (2 Bft) W 0,00 h 0 W/m 13,6 C 15,3 C 17,9 km/h (3 Bft)
18.07.2016 01:00 16,7 C 81 % 1018,3 hPa 0,0 l/m 9,7 km/h (2 Bft) W 0,00 h 0 W/m 13,4 C 15,1 C 18,5 km/h (3 Bft)
18.07.2016 02:00 16,7 C 82 % 1018,1 hPa 0,0 l/m 10,3 km/h (2 Bft) W 0,00 h 0 W/m 13,6 C 14,9 C 19,4 km/h (3 Bft)
18.07.2016 03:00 16,6 C 83 % 1018,0 hPa 0,0 l/m 9,1 km/h (2 Bft) W-NW 0,00 h 0 W/m 13,7 C 15,3 C 18,1 km/h (3 Bft)
18.07.2016 04:00 16,4 C 85 % 1017,8 hPa 0,0 l/m 8,1 km/h (2 Bft) W-SW 0,00 h 0 W/m 13,9 C 15,5 C 17,1 km/h (3 Bft)
18.07.2016 05:00 16,6 C 86 % 1017,8 hPa 0,0 l/m 8,7 km/h (2 Bft) W 0,00 h 0 W/m 14,2 C 15,4 C 16,7 km/h (3 Bft)
18.07.2016 06:00 16,6 C 85 % 1018,2 hPa 0,0 l/m 8,3 km/h (2 Bft) W 0,00 h 9 W/m 14,1 C 15,7 C 16,0 km/h (3 Bft)
18.07.2016 07:00 17,0 C 84 % 1018,4 hPa 0,0 l/m 8,6 km/h (2 Bft) W 0,00 h 44 W/m 14,3 C 15,9 C 16,4 km/h (3 Bft)
18.07.2016 08:00 17,8 C 81 % 1018,5 hPa 0,0 l/m 7,2 km/h (2 Bft) W 0,00 h 105 W/m 14,5 C 17,2 C 13,9 km/h (3 Bft)
18.07.2016 09:00 18,5 C 77 % 1018,6 hPa 0,0 l/m 6,2 km/h (2 Bft) W 0,00 h 133 W/m 14,4 C 18,2 C 12,3 km/h (2 Bft)
18.07.2016 10:00 18,5 C 81 % 1018,7 hPa 0,0 l/m 6,5 km/h (2 Bft) W-SW 0,00 h 123 W/m 15,1 C 18,2 C 13,2 km/h (3 Bft)
18.07.2016 11:00 19,3 C 82 % 1018,9 hPa 0,0 l/m 10,9 km/h (2 Bft) W-SW 0,35 h 334 W/m 16,1 C 17,7 C 19,2 km/h (3 Bft)
18.07.2016 12:00 21,9 C 71 % 1019,2 hPa 0,0 l/m 11,1 km/h (2 Bft) W 1,00 h 692 W/m 16,4 C 20,5 C 20,2 km/h (4 Bft)
18.07.2016 13:00 22,5 C 64 % 1019,5 hPa 0,0 l/m 10,0 km/h (2 Bft) W 0,70 h 543 W/m 15,4 C 21,4 C 19,7 km/h (3 Bft)
18.07.2016 14:00 21,6 C 65 % 1019,7 hPa 0,0 l/m 10,0 km/h (2 Bft) W 0,10 h 334 W/m 14,9 C 20,5 C 18,9 km/h (3 Bft)
18.07.2016 15:00 22,8 C 65 % 1019,8 hPa 0,0 l/m 10,3 km/h (2 Bft) W-NW 0,90 h 704 W/m 15,8 C 21,7 C 18,3 km/h (3 Bft)
18.07.2016 16:00 21,9 C 67 % 1019,9 hPa 0,0 l/m 11,1 km/h (2 Bft) W 0,55 h 373 W/m 15,6 C 20,5 C 20,1 km/h (4 Bft)
18.07.2016 17:00 21,2 C 68 % 1019,7 hPa 0,0 l/m 9,5 km/h (2 Bft) W-NW 0,60 h 379 W/m 15,0 C 20,2 C 18,3 km/h (3 Bft)
18.07.2016 18:00 21,7 C 62 % 1019,7 hPa 0,0 l/m 8,4 km/h (2 Bft) W 1,00 h 388 W/m 14,2 C 21,0 C 17,0 km/h (3 Bft)
18.07.2016 19:00 20,9 C 61 % 1019,7 hPa 0,0 l/m 9,0 km/h (2 Bft) W 0,95 h 233 W/m 12,9 C 19,9 C 17,5 km/h (3 Bft)
18.07.2016 20:00 19,9 C 64 % 1019,6 hPa 0,0 l/m 7,3 km/h (2 Bft) W 0,40 h 69 W/m 12,8 C 19,5 C 14,4 km/h (3 Bft)
18.07.2016 21:00 18,8 C 70 % 1019,7 hPa 0,0 l/m 6,7 km/h (2 Bft) W 0,00 h 11 W/m 13,1 C 18,5 C 13,5 km/h (3 Bft)
18.07.2016 22:00 18,4 C 73 % 1019,8 hPa 0,0 l/m 7,1 km/h (2 Bft) W 0,00 h 0 W/m 13,4 C 18,1 C 13,9 km/h (3 Bft)
18.07.2016 23:00 18,6 C 76 % 1020,0 hPa 0,0 l/m 7,5 km/h (2 Bft) W 0,00 h 0 W/m 14,3 C 18,0 C 14,9 km/h (3 Bft)
19.07.2016 00:00 18,4 C 79 % 1020,2 hPa 0,0 l/m 6,6 km/h (2 Bft) W 0,00 h 0 W/m 14,8 C 18,1 C 13,6 km/h (3 Bft)
19.07.2016 01:00 18,1 C 83 % 1020,1 hPa 0,0 l/m 7,2 km/h (2 Bft) W 0,00 h 0 W/m 15,2 C 17,7 C 13,9 km/h (3 Bft)
19.07.2016 02:00 18,2 C 85 % 1020,1 hPa 0,0 l/m 7,1 km/h (2 Bft) W 0,00 h 0 W/m 15,6 C 17,8 C 14,0 km/h (3 Bft)
19.07.2016 03:00 18,0 C 87 % 1019,8 hPa 0,0 l/m 6,0 km/h (2 Bft) W 0,00 h 0 W/m 15,8 C 18,0 C 14,5 km/h (3 Bft)
19.07.2016 04:00 17,9 C 89 % 1019,7 hPa 0,0 l/m 5,6 km/h (2 Bft) W 0,00 h 0 W/m 16,0 C 17,9 C 14,5 km/h (3 Bft)
19.07.2016 05:00 17,8 C 90 % 1019,6 hPa 0,0 l/m 4,8 km/h (1 Bft) W 0,00 h 5 W/m 16,1 C 17,8 C 12,5 km/h (2 Bft)
19.07.2016 06:00 17,8 C 92 % 1020,0 hPa 0,0 l/m 3,6 km/h (1 Bft) W 0,00 h 31 W/m 16,4 C 17,8 C 10,1 km/h (2 Bft)
19.07.2016 07:00 18,8 C 89 % 1020,3 hPa 0,0 l/m 5,6 km/h (2 Bft) W 0,00 h 51 W/m 16,9 C 18,8 C 13,3 km/h (3 Bft)
19.07.2016 08:00 19,6 C 87 % 1020,5 hPa 0,0 l/m 6,4 km/h (2 Bft) W 0,00 h 112 W/m 17,3 C 19,6 C 15,3 km/h (3 Bft)
19.07.2016 09:00 20,4 C 84 % 1020,8 hPa 0,0 l/m 6,4 km/h (2 Bft) W 0,00 h 128 W/m 17,6 C 20,4 C 14,5 km/h (3 Bft)
19.07.2016 10:00 21,8 C 78 % 1020,9 hPa 0,0 l/m 6,0 km/h (2 Bft) W 0,00 h 162 W/m 17,9 C 21,8 C 15,3 km/h (3 Bft)
19.07.2016 11:00 23,1 C 72 % 1021,0 hPa 0,0 l/m 8,0 km/h (2 Bft) W 1,00 h 717 W/m 17,8 C 22,6 C 17,3 km/h (3 Bft)
19.07.2016 12:00 24,5 C 67 % 1021,2 hPa 0,0 l/m 6,8 km/h (2 Bft) W 1,00 h 762 W/m 17,9 C 24,3 C 16,5 km/h (3 Bft)
19.07.2016 13:00 26,5 C 59 % 1021,1 hPa 0,0 l/m 6,4 km/h (2 Bft) W 1,00 h 803 W/m 17,7 C 26,5 C 14,1 km/h (3 Bft)
19.07.2016 14:00 27,4 C 50 % 1021,2 hPa 0,0 l/m 6,4 km/h (2 Bft) W 1,00 h 796 W/m 16,1 C 27,4 C 14,1 km/h (3 Bft)
19.07.2016 15:00 27,9 C 51 % 1020,9 hPa 0,0 l/m 5,5 km/h (2 Bft) N-NW 1,20 h 736 W/m 16,8 C 27,8 C 12,1 km/h (2 Bft)
19.07.2016 16:00 26,8 C 52 % 1020,6 hPa 0,0 l/m 5,4 km/h (2 Bft) NW 1,00 h 657 W/m 16,0 C 26,8 C 10,7 km/h (2 Bft)
19.07.2016 17:00 26,0 C 57 % 1020,5 hPa 0,0 l/m 5,1 km/h (1 Bft) N-NW 1,00 h 534 W/m 16,8 C 26,0 C 10,5 km/h (2 Bft)
19.07.2016 18:00 25,1 C 61 % 1020,1 hPa 0,0 l/m 5,3 km/h (1 Bft) NW 1,00 h 392 W/m 17,1 C 25,0 C 10,9 km/h (2 Bft)
19.07.2016 19:00 23,5 C 70 % 1019,8 hPa 0,0 l/m 3,3 km/h (1 Bft) N 1,00 h 241 W/m 17,7 C 23,5 C 7,4 km/h (2 Bft)
19.07.2016 20:00 22,0 C 76 % 1019,7 hPa 0,0 l/m 1,3 km/h (1 Bft) N 0,35 h 65 W/m 17,7 C 22,0 C 3,6 km/h (1 Bft)
19.07.2016 21:00 20,5 C 84 % 1019,6 hPa 0,0 l/m 0,2 km/h (0 Bft) N 0,00 h 8 W/m 17,7 C 20,5 C 1,1 km/h (1 Bft)
19.07.2016 22:00 19,3 C 88 % 1019,6 hPa 0,0 l/m 0,0 km/h (0 Bft) N 0,00 h 0 W/m 17,3 C 19,3 C 0,7 km/h (0 Bft)
19.07.2016 23:00 19,1 C 89 % 1019,4 hPa 0,0 l/m 0,0 km/h (0 Bft) N 0,00 h 0 W/m 17,2 C 19,1 C 0,2 km/h (0 Bft)
20.07.2016 00:00 18,6 C 90 % 1019,4 hPa 0,0 l/m 0,1 km/h (0 Bft) N 0,00 h 0 W/m 16,9 C 18,6 C 0,8 km/h (0 Bft)
20.07.2016 01:00 18,3 C 92 % 1019,1 hPa 0,0 l/m 0,4 km/h (0 Bft) N 0,00 h 0 W/m 16,9 C 18,3 C 1,9 km/h (1 Bft)
20.07.2016 02:00 18,1 C 92 % 1018,9 hPa 0,0 l/m 0,6 km/h (0 Bft) NO 0,00 h 0 W/m 16,8 C 18,1 C 2,4 km/h (1 Bft)
20.07.2016 03:00 17,8 C 93 % 1018,6 hPa 0,0 l/m 1,1 km/h (1 Bft) O-NO 0,00 h 0 W/m 16,6 C 17,8 C 3,8 km/h (1 Bft)
20.07.2016 04:00 17,4 C 93 % 1018,3 hPa 0,0 l/m 1,4 km/h (1 Bft) O-SO 0,00 h 0 W/m 16,2 C 17,4 C 3,6 km/h (1 Bft)
20.07.2016 05:00 17,0 C 94 % 1018,0 hPa 0,0 l/m 1,6 km/h (1 Bft) SO 0,00 h 6 W/m 16,0 C 17,0 C 4,5 km/h (1 Bft)
20.07.2016 06:00 17,6 C 94 % 1017,7 hPa 0,0 l/m 2,1 km/h (1 Bft) O-SO 0,00 h 11 W/m 16,6 C 17,6 C 5,8 km/h (2 Bft)
20.07.2016 07:00 18,6 C 93 % 1017,3 hPa 0,0 l/m 2,6 km/h (1 Bft) O-SO 0,00 h 15 W/m 17,3 C 18,6 C 6,9 km/h (2 Bft)
20.07.2016 08:00 20,5 C 87 % 1017,0 hPa 0,0 l/m 5,3 km/h (1 Bft) S-SO 0,00 h 17 W/m 18,3 C 20,3 C 11,5 km/h (2 Bft)
20.07.2016 09:00 22,8 C 78 % 1016,6 hPa 0,0 l/m 7,0 km/h (2 Bft) SO 0,00 h 20 W/m 18,8 C 22,4 C 14,9 km/h (3 Bft)
20.07.2016 10:00 24,9 C 71 % 1016,3 hPa 0,0 l/m 6,7 km/h (2 Bft) SO 0,15 h 122 W/m 19,1 C 24,6 C 13,8 km/h (3 Bft)
20.07.2016 11:00 26,5 C 63 % 1015,9 hPa 0,0 l/m 7,7 km/h (2 Bft) SO 1,00 h 655 W/m 18,8 C 26,2 C 16,1 km/h (3 Bft)
20.07.2016 12:00 28,2 C 56 % 1015,3 hPa 0,0 l/m 7,8 km/h (2 Bft) SO 1,00 h 717 W/m 18,6 C 27,9 C 18,1 km/h (3 Bft)
20.07.2016 13:00 29,6 C 51 % 1014,8 hPa 0,0 l/m 6,0 km/h (2 Bft) SO 1,00 h 807 W/m 18,4 C 29,6 C 14,5 km/h (3 Bft)
20.07.2016 14:00 30,2 C 52 % 1014,3 hPa 0,0 l/m 5,3 km/h (1 Bft) N-NO 1,00 h 792 W/m 19,3 C 30,2 C 12,4 km/h (2 Bft)
20.07.2016 15:00 30,4 C 53 % 1013,6 hPa 0,0 l/m 5,3 km/h (1 Bft) O-NO 1,00 h 741 W/m 19,8 C 30,4 C 12,4 km/h (2 Bft)
20.07.2016 16:00 30,0 C 54 % 1012,8 hPa 0,0 l/m 5,6 km/h (2 Bft) NO 1,00 h 656 W/m 19,6 C 30,0 C 13,9 km/h (3 Bft)
20.07.2016 17:00 29,8 C 54 % 1012,2 hPa 0,0 l/m 5,3 km/h (1 Bft) O-NO 1,00 h 532 W/m 19,5 C 29,8 C 13,5 km/h (3 Bft)
20.07.2016 18:00 29,1 C 54 % 1011,8 hPa 0,0 l/m 5,5 km/h (2 Bft) O-NO 1,00 h 387 W/m 18,8 C 29,1 C 13,9 km/h (3 Bft)
20.07.2016 19:00 28,1 C 57 % 1011,3 hPa 0,0 l/m 5,1 km/h (1 Bft) SO 0,50 h 182 W/m 18,6 C 28,1 C 12,9 km/h (3 Bft)
20.07.2016 20:00 26,3 C 63 % 1011,0 hPa 0,0 l/m 4,3 km/h (1 Bft) NO 0,00 h 33 W/m 18,7 C 26,3 C 11,4 km/h (2 Bft)
20.07.2016 21:00 25,1 C 66 % 1011,0 hPa 0,0 l/m 3,9 km/h (1 Bft) O-SO 0,00 h 10 W/m 18,3 C 25,1 C 10,6 km/h (2 Bft)
20.07.2016 22:00 23,7 C 73 % 1011,1 hPa 0,0 l/m 5,8 km/h (2 Bft) O-SO 0,00 h 0 W/m 18,6 C 23,7 C 14,0 km/h (3 Bft)
20.07.2016 23:00 22,8 C 76 % 1011,5 hPa 0,0 l/m 5,8 km/h (2 Bft) SO 0,00 h 0 W/m 18,4 C 22,7 C 12,4 km/h (2 Bft)
21.07.2016 00:00 23,0 C 74 % 1011,3 hPa 0,0 l/m 1,7 km/h (1 Bft) S 0,00 h 0 W/m 18,1 C 23,0 C 3,4 km/h (1 Bft)
21.07.2016 01:00 22,2 C 80 % 1010,7 hPa 0,0 l/m 1,7 km/h (1 Bft) NO 0,00 h 0 W/m 18,6 C 22,2 C 4,2 km/h (1 Bft)
21.07.2016 02:00 21,5 C 84 % 1010,8 hPa 0,0 l/m 0,9 km/h (0 Bft) NO 0,00 h 0 W/m 18,7 C 21,5 C 2,3 km/h (1 Bft)
21.07.2016 03:00 20,9 C 85 % 1010,5 hPa 0,0 l/m 1,9 km/h (1 Bft) W 0,00 h 0 W/m 18,4 C 20,9 C 5,1 km/h (1 Bft)
21.07.2016 04:00 20,0 C 87 % 1010,6 hPa 0,0 l/m 1,4 km/h (1 Bft) O-NO 0,00 h 0 W/m 17,8 C 20,0 C 3,4 km/h (1 Bft)
21.07.2016 05:00 19,5 C 89 % 1010,6 hPa 0,0 l/m 1,1 km/h (1 Bft) O 0,00 h 6 W/m 17,7 C 19,5 C 3,7 km/h (1 Bft)
21.07.2016 06:00 19,6 C 89 % 1010,9 hPa 0,0 l/m 1,7 km/h (1 Bft) SO 0,00 h 11 W/m 17,7 C 19,6 C 4,6 km/h (1 Bft)
21.07.2016 07:00 20,1 C 85 % 1011,3 hPa 0,0 l/m 2,7 km/h (1 Bft) SO 0,00 h 22 W/m 17,5 C 20,1 C 6,2 km/h (2 Bft)
21.07.2016 08:00 21,8 C 81 % 1011,5 hPa 0,0 l/m 4,5 km/h (1 Bft) S 0,00 h 31 W/m 18,3 C 21,8 C 8,5 km/h (2 Bft)
21.07.2016 09:00 24,2 C 72 % 1011,6 hPa 0,0 l/m 7,9 km/h (2 Bft) SW 0,00 h 37 W/m 18,8 C 23,8 C 13,1 km/h (3 Bft)
21.07.2016 10:00 24,9 C 71 % 1011,9 hPa 0,0 l/m 10,1 km/h (2 Bft) W 0,15 h 139 W/m 19,3 C 24,1 C 17,7 km/h (3 Bft)
21.07.2016 11:00 26,2 C 70 % 1012,4 hPa 0,0 l/m 9,4 km/h (2 Bft) N-NW 1,00 h 601 W/m 20,4 C 25,6 C 17,2 km/h (3 Bft)
21.07.2016 12:00 27,4 C 64 % 1013,1 hPa 0,0 l/m 7,1 km/h (2 Bft) NW 1,00 h 670 W/m 20,0 C 27,2 C 13,9 km/h (3 Bft)
21.07.2016 13:00 28,6 C 60 % 1013,2 hPa 0,0 l/m 7,5 km/h (2 Bft) N-NW 1,00 h 761 W/m 20,1 C 28,4 C 14,3 km/h (3 Bft)
21.07.2016 14:00 29,7 C 56 % 1013,3 hPa 0,0 l/m 5,8 km/h (2 Bft) NW 1,00 h 755 W/m 20,0 C 29,6 C 10,6 km/h (2 Bft)
21.07.2016 15:00 29,6 C 56 % 1013,2 hPa 0,0 l/m 5,7 km/h (2 Bft) NW 1,00 h 709 W/m 19,8 C 29,6 C 10,8 km/h (2 Bft)
21.07.2016 16:00 28,6 C 58 % 1013,2 hPa 0,0 l/m 6,7 km/h (2 Bft) N-NW 1,00 h 599 W/m 19,6 C 28,5 C 13,2 km/h (3 Bft)
21.07.2016 17:00 28,0 C 62 % 1013,3 hPa 0,0 l/m 6,9 km/h (2 Bft) NW 1,00 h 491 W/m 20,0 C 27,8 C 13,4 km/h (3 Bft)
21.07.2016 18:00 26,0 C 68 % 1013,4 hPa 0,0 l/m 8,1 km/h (2 Bft) N-NW 1,00 h 360 W/m 19,6 C 25,6 C 14,9 km/h (3 Bft)
21.07.2016 19:00 23,9 C 74 % 1013,4 hPa 0,0 l/m 8,5 km/h (2 Bft) NW 1,00 h 205 W/m 18,9 C 23,4 C 16,2 km/h (3 Bft)
21.07.2016 20:00 22,7 C 78 % 1014,1 hPa 0,0 l/m 7,7 km/h (2 Bft) N 0,20 h 61 W/m 18,8 C 22,3 C 14,7 km/h (3 Bft)
21.07.2016 21:00 21,7 C 83 % 1014,6 hPa 0,0 l/m 5,9 km/h (2 Bft) NW 0,00 h 8 W/m 18,6 C 21,6 C 11,7 km/h (2 Bft)
21.07.2016 22:00 20,9 C 87 % 1014,3 hPa 0,0 l/m 5,8 km/h (2 Bft) N-NW 0,00 h 0 W/m 18,7 C 20,9 C 11,3 km/h (2 Bft)
21.07.2016 23:00 20,9 C 89 % 1014,3 hPa 0,0 l/m 3,8 km/h (1 Bft) N-NW 0,00 h 0 W/m 19,0 C 20,9 C 7,7 km/h (2 Bft)
22.07.2016 00:00 20,9 C 89 % 1014,4 hPa 0,0 l/m 3,4 km/h (1 Bft) N-NW 0,00 h 0 W/m 19,0 C 20,9 C 7,2 km/h (2 Bft)
22.07.2016 01:00 20,7 C 90 % 1014,6 hPa 0,0 l/m 3,8 km/h (1 Bft) NW 0,00 h 0 W/m 19,0 C 20,7 C 7,5 km/h (2 Bft)
22.07.2016 02:00 20,4 C 92 % 1014,7 hPa 0,0 l/m 3,4 km/h (1 Bft) NW 0,00 h 0 W/m 18,9 C 20,4 C 6,4 km/h (2 Bft)
22.07.2016 03:00 20,2 C 92 % 1014,4 hPa 0,0 l/m 5,8 km/h (2 Bft) N-NW 0,00 h 0 W/m 18,9 C 20,2 C 10,2 km/h (2 Bft)
22.07.2016 04:00 20,0 C 93 % 1014,3 hPa 0,0 l/m 4,2 km/h (1 Bft) NW 0,00 h 0 W/m 18,9 C 20,0 C 8,1 km/h (2 Bft)
22.07.2016 05:00 19,9 C 94 % 1014,3 hPa 0,0 l/m 2,1 km/h (1 Bft) NW 0,00 h 10 W/m 18,9 C 19,9 C 4,9 km/h (1 Bft)
22.07.2016 06:00 20,4 C 94 % 1014,4 hPa 0,0 l/m 1,7 km/h (1 Bft) N 0,00 h 43 W/m 19,4 C 20,4 C 4,3 km/h (1 Bft)
22.07.2016 07:00 21,1 C 91 % 1014,7 hPa 0,0 l/m 3,6 km/h (1 Bft) NW 0,00 h 39 W/m 19,6 C 21,1 C 6,2 km/h (2 Bft)
22.07.2016 08:00 21,6 C 89 % 1014,8 hPa 0,0 l/m 4,3 km/h (1 Bft) N-NW 0,00 h 89 W/m 19,7 C 21,6 C 8,0 km/h (2 Bft)
22.07.2016 09:00 22,9 C 85 % 1015,2 hPa 0,0 l/m 4,8 km/h (1 Bft) N-NW 0,00 h 126 W/m 20,1 C 22,9 C 9,4 km/h (2 Bft)
22.07.2016 10:00 23,7 C 80 % 1015,6 hPa 0,0 l/m 3,6 km/h (1 Bft) W 0,00 h 182 W/m 20,0 C 23,7 C 7,5 km/h (2 Bft)
22.07.2016 11:00 23,7 C 79 % 1016,1 hPa 0,0 l/m 5,1 km/h (1 Bft) W 0,00 h 192 W/m 19,8 C 23,7 C 11,0 km/h (2 Bft)
22.07.2016 12:00 22,1 C 83 % 1016,5 hPa 0,0 l/m 8,4 km/h (2 Bft) SW 0,00 h 163 W/m 19,0 C 21,4 C 15,1 km/h (3 Bft)
22.07.2016 13:00 22,2 C 81 % 1016,4 hPa 0,0 l/m 6,0 km/h (2 Bft) W 0,00 h 280 W/m 18,7 C 22,1 C 12,5 km/h (2 Bft)
22.07.2016 14:00 24,3 C 74 % 1016,3 hPa 0,0 l/m 5,5 km/h (2 Bft) W-NW 0,80 h 549 W/m 19,4 C 24,3 C 10,5 km/h (2 Bft)
22.07.2016 15:00 25,2 C 70 % 1016,2 hPa 0,0 l/m 6,3 km/h (2 Bft) W 0,70 h 490 W/m 19,2 C 25,1 C 12,6 km/h (2 Bft)
22.07.2016 16:00 23,8 C 75 % 1016,5 hPa 0,0 l/m 5,3 km/h (1 Bft) W 0,00 h 266 W/m 19,0 C 23,6 C 10,2 km/h (2 Bft)
22.07.2016 17:00 23,3 C 77 % 1016,1 hPa 0,0 l/m 6,6 km/h (2 Bft) W 0,35 h 280 W/m 18,9 C 23,1 C 12,7 km/h (3 Bft)
22.07.2016 18:00 22,9 C 79 % 1016,3 hPa 0,0 l/m 5,6 km/h (2 Bft) W-NW 0,00 h 110 W/m 19,0 C 22,8 C 12,0 km/h (2 Bft)
22.07.2016 19:00 22,1 C 82 % 1016,6 hPa 0,0 l/m 4,1 km/h (1 Bft) W-NW 0,00 h 58 W/m 18,8 C 22,1 C 8,1 km/h (2 Bft)
22.07.2016 20:00 21,4 C 85 % 1016,9 hPa 0,0 l/m 5,2 km/h (1 Bft) NW 0,00 h 6 W/m 18,7 C 21,3 C 10,1 km/h (2 Bft)
22.07.2016 21:00 20,9 C 88 % 1016,9 hPa 0,0 l/m 2,2 km/h (1 Bft) W-NW 0,00 h 6 W/m 18,8 C 20,9 C 5,2 km/h (1 Bft)
22.07.2016 22:00 20,7 C 89 % 1016,9 hPa 0,0 l/m 1,8 km/h (1 Bft) W 0,00 h 0 W/m 18,7 C 20,7 C 4,1 km/h (1 Bft)
22.07.2016 23:00 20,3 C 90 % 1017,1 hPa 0,0 l/m 1,6 km/h (1 Bft) W 0,00 h 0 W/m 18,6 C 20,3 C 3,7 km/h (1 Bft)
23.07.2016 00:00 20,1 C 91 % 1017,1 hPa 0,0 l/m 2,2 km/h (1 Bft) W-NW 0,00 h 0 W/m 18,6 C 20,1 C 4,9 km/h (1 Bft)
23.07.2016 01:00 19,9 C 92 % 1017,3 hPa 0,0 l/m 2,7 km/h (1 Bft) NW 0,00 h 0 W/m 18,6 C 19,9 C 6,2 km/h (2 Bft)
23.07.2016 02:00 19,8 C 92 % 1017,1 hPa 0,0 l/m 4,2 km/h (1 Bft) N-NW 0,00 h 0 W/m 18,5 C 19,8 C 8,1 km/h (2 Bft)
23.07.2016 03:00 19,8 C 92 % 1016,9 hPa 0,0 l/m 2,4 km/h (1 Bft) N-NW 0,00 h 0 W/m 18,5 C 19,8 C 5,0 km/h (1 Bft)
23.07.2016 04:00 19,7 C 93 % 1017,0 hPa 0,0 l/m 0,2 km/h (0 Bft) NW 0,00 h 0 W/m 18,6 C 19,7 C 0,8 km/h (0 Bft)
23.07.2016 05:00 19,4 C 94 % 1016,9 hPa 0,0 l/m 0,1 km/h (0 Bft) N 0,00 h 7 W/m 18,4 C 19,4 C 0,6 km/h (0 Bft)
23.07.2016 06:00 20,1 C 94 % 1017,0 hPa 0,0 l/m 0,2 km/h (0 Bft) N 0,00 h 22 W/m 19,1 C 20,1 C 1,1 km/h (1 Bft)
23.07.2016 07:00 20,8 C 92 % 1017,2 hPa 0,0 l/m 0,7 km/h (0 Bft) O-SO 0,00 h 60 W/m 19,4 C 20,8 C 2,2 km/h (1 Bft)
23.07.2016 08:00 20,9 C 87 % 1017,3 hPa 0,0 l/m 1,0 km/h (0 Bft) O 0,00 h 80 W/m 18,7 C 20,9 C 3,4 km/h (1 Bft)
23.07.2016 09:00 22,8 C 81 % 1017,4 hPa 0,0 l/m 1,7 km/h (1 Bft) S 0,00 h 109 W/m 19,3 C 22,8 C 4,2 km/h (1 Bft)
23.07.2016 10:00 25,1 C 71 % 1017,4 hPa 0,0 l/m 2,3 km/h (1 Bft) O-SO 0,15 h 156 W/m 19,4 C 25,1 C 5,4 km/h (2 Bft)
23.07.2016 11:00 26,8 C 63 % 1017,7 hPa 0,0 l/m 2,8 km/h (1 Bft) NO 0,80 h 496 W/m 19,1 C 26,8 C 6,1 km/h (2 Bft)
23.07.2016 12:00 27,4 C 59 % 1017,9 hPa 0,0 l/m 3,8 km/h (1 Bft) SO 0,85 h 647 W/m 18,6 C 27,4 C 8,0 km/h (2 Bft)
23.07.2016 13:00 27,6 C 57 % 1018,0 hPa 0,0 l/m 4,3 km/h (1 Bft) NO 0,95 h 521 W/m 18,2 C 27,6 C 10,5 km/h (2 Bft)
23.07.2016 14:00 27,1 C 60 % 1018,1 hPa 0,0 l/m 3,2 km/h (1 Bft) NO 0,05 h 372 W/m 18,5 C 27,1 C 7,8 km/h (2 Bft)
23.07.2016 15:00 27,9 C 53 % 1018,0 hPa 0,0 l/m 2,9 km/h (1 Bft) O-SO 0,45 h 412 W/m 17,3 C 27,9 C 7,3 km/h (2 Bft)
23.07.2016 16:00 28,7 C 56 % 1017,8 hPa 0,0 l/m 4,2 km/h (1 Bft) NW 0,80 h 496 W/m 18,9 C 28,6 C 8,3 km/h (2 Bft)
23.07.2016 17:00 28,0 C 60 % 1017,7 hPa 0,0 l/m 3,3 km/h (1 Bft) N-NW 0,80 h 456 W/m 19,5 C 28,0 C 6,0 km/h (2 Bft)
23.07.2016 18:00 27,2 C 62 % 1017,4 hPa 0,0 l/m 3,3 km/h (1 Bft) NW 0,25 h 209 W/m 19,3 C 27,2 C 6,5 km/h (2 Bft)
23.07.2016 19:00 25,4 C 73 % 1017,6 hPa 0,0 l/m 4,1 km/h (1 Bft) NW 0,65 h 162 W/m 20,2 C 25,4 C 7,9 km/h (2 Bft)
23.07.2016 20:00 24,3 C 77 % 1017,8 hPa 0,0 l/m 2,7 km/h (1 Bft) N-NW 0,00 h 45 W/m 20,1 C 24,3 C 5,5 km/h (2 Bft)
23.07.2016 21:00 23,3 C 80 % 1018,0 hPa 0,0 l/m 1,2 km/h (1 Bft) N-NW 0,00 h 12 W/m 19,6 C 23,3 C 2,7 km/h (1 Bft)
23.07.2016 22:00 21,7 C 84 % 1018,1 hPa 0,0 l/m 0,0 km/h (0 Bft) N 0,00 h 0 W/m 18,9 C 21,7 C 0,2 km/h (0 Bft)
23.07.2016 23:00 21,3 C 86 % 1018,1 hPa 0,0 l/m 0,0 km/h (0 Bft) N 0,00 h 0 W/m 18,8 C 21,3 C 0,3 km/h (0 Bft)
24.07.2016 00:00 20,4 C 87 % 1018,3 hPa 0,0 l/m 0,2 km/h (0 Bft) N 0,00 h 0 W/m 18,2 C 20,4 C 1,4 km/h (1 Bft)
24.07.2016 01:00 20,0 C 87 % 1018,4 hPa 0,0 l/m 0,6 km/h (0 Bft) O 0,00 h 0 W/m 17,8 C 20,0 C 2,4 km/h (1 Bft)
24.07.2016 02:00 19,5 C 87 % 1018,1 hPa 0,0 l/m 0,3 km/h (0 Bft) O 0,00 h 0 W/m 17,3 C 19,5 C 1,7 km/h (1 Bft)
24.07.2016 03:00 18,9 C 86 % 1018,2 hPa 0,0 l/m 0,7 km/h (0 Bft) W-SW 0,00 h 0 W/m 16,6 C 18,9 C 2,1 km/h (1 Bft)
24.07.2016 04:00 18,3 C 87 % 1018,1 hPa 0,0 l/m 0,1 km/h (0 Bft) N 0,00 h 0 W/m 16,0 C 18,3 C 0,7 km/h (0 Bft)
24.07.2016 05:00 17,8 C 87 % 1017,9 hPa 0,0 l/m 0,2 km/h (0 Bft) W-SW 0,00 h 5 W/m 15,5 C 17,8 C 0,8 km/h (0 Bft)
24.07.2016 06:00 17,6 C 88 % 1017,9 hPa 0,0 l/m 0,8 km/h (0 Bft) SO 0,00 h 12 W/m 15,5 C 17,6 C 2,2 km/h (1 Bft)
24.07.2016 07:00 18,8 C 86 % 1017,8 hPa 0,0 l/m 1,4 km/h (1 Bft) SO 0,00 h 20 W/m 16,5 C 18,8 C 3,1 km/h (1 Bft)
24.07.2016 08:00 20,5 C 83 % 1017,9 hPa 0,0 l/m 2,6 km/h (1 Bft) S-SO 0,00 h 26 W/m 17,5 C 20,5 C 5,5 km/h (2 Bft)
24.07.2016 09:00 22,9 C 77 % 1017,9 hPa 0,0 l/m 2,3 km/h (1 Bft) W 0,05 h 52 W/m 18,6 C 22,9 C 5,3 km/h (1 Bft)
24.07.2016 10:00 22,6 C 85 % 1018,0 hPa 0,0 l/m 4,9 km/h (1 Bft) W 0,15 h 115 W/m 19,9 C 22,6 C 10,7 km/h (2 Bft)
24.07.2016 11:00 23,0 C 86 % 1018,1 hPa 0,0 l/m 4,9 km/h (1 Bft) W 0,10 h 243 W/m 20,5 C 23,0 C 10,8 km/h (2 Bft)
24.07.2016 12:00 23,1 C 86 % 1018,3 hPa 0,0 l/m 6,6 km/h (2 Bft) W 0,10 h 340 W/m 20,6 C 22,9 C 12,7 km/h (3 Bft)
24.07.2016 13:00 23,4 C 83 % 1018,3 hPa 0,0 l/m 7,6 km/h (2 Bft) W 0,95 h 763 W/m 20,3 C 22,9 C 14,8 km/h (3 Bft)
24.07.2016 14:00 23,1 C 82 % 1018,4 hPa 0,0 l/m 8,1 km/h (2 Bft) W 1,00 h 779 W/m 19,9 C 22,6 C 14,9 km/h (3 Bft)
24.07.2016 15:00 23,0 C 81 % 1018,0 hPa 0,0 l/m 7,8 km/h (2 Bft) W 1,00 h 718 W/m 19,6 C 22,5 C 15,3 km/h (3 Bft)
24.07.2016 16:00 23,1 C 81 % 1017,7 hPa 0,0 l/m 6,5 km/h (2 Bft) W 1,00 h 618 W/m 19,7 C 22,8 C 13,3 km/h (3 Bft)
24.07.2016 17:00 22,5 C 83 % 1017,5 hPa 0,0 l/m 6,5 km/h (2 Bft) W-NW 1,00 h 478 W/m 19,4 C 22,3 C 13,0 km/h (3 Bft)
24.07.2016 18:00 21,4 C 85 % 1017,5 hPa 0,0 l/m 7,2 km/h (2 Bft) NW 0,75 h 270 W/m 18,8 C 21,0 C 13,9 km/h (3 Bft)
24.07.2016 19:00 20,5 C 89 % 1017,4 hPa 0,0 l/m 6,3 km/h (2 Bft) NW 0,15 h 89 W/m 18,6 C 20,3 C 11,9 km/h (2 Bft)
24.07.2016 20:00 20,4 C 89 % 1017,2 hPa 0,0 l/m 4,1 km/h (1 Bft) NW 0,00 h 40 W/m 18,5 C 20,3 C 6,9 km/h (2 Bft)
24.07.2016 21:00 19,6 C 91 % 1017,3 hPa 0,0 l/m 1,5 km/h (1 Bft) N-NW 0,00 h 10 W/m 18,2 C 19,6 C 3,9 km/h (1 Bft)
24.07.2016 22:00 18,7 C 94 % 1017,5 hPa 0,0 l/m 0,6 km/h (0 Bft) N-NW 0,00 h 0 W/m 17,7 C 18,7 C 2,2 km/h (1 Bft)
24.07.2016 23:00 18,5 C 95 % 1017,3 hPa 0,0 l/m 0,7 km/h (0 Bft) N 0,00 h 0 W/m 17,7 C 18,5 C 2,7 km/h (1 Bft)
Min-Datum _ 18.07.16 20.07.16 21.07.16 - 19.07.16 - - - 18.07.16 18.07.16 19.07.16
_ Min-Zeit 04:06 14:27 03:21 - 21:15 - - - 19:39 03:48 21:15
Minimum _ 16,4 C 48 % 1010,1 hPa - 0,0 km/h (0 Bft) - - - 12,1 C 13,8 C 0,0 km/h (0 Bft)
Max-Datum _ 20.07.16 23.07.16 19.07.16 18.07.16 18.07.16 - 19.07.16 24.07.16 24.07.16 20.07.16 18.07.16
_ Max-Zeit 14:39 06:21 12:00 00:00 11:39 - 15:48 11:48 10:00 14:39 11:39
Maximum _ 31,1 C 95 % 1021,2 hPa 0,0 l/m 16,9 km/h
W-SW (3 Bft)
- 0,30 h 898 W/m 21,0 C 31,1 C 29,0 km/h
W-SW (5 Bft)
Durchschnitt _ 22,1 C 78 % 1016,8 hPa #0,0 l/m 4,7 km/h (1 Bft) W #47:57 h 284 W/m 17,8 C 21,9 C 9,9 km/h (2 Bft)
2016 Cux-Wetter.de -Die Nutzung der Wetterdaten nur mit ausdrcklicher Genehmigung